createdAt,value
2023-04-01T00:00:56.013Z,2526.00
2023-04-01T00:01:56.054Z,2622.00
2023-04-01T00:02:56.198Z,2713.00
2023-04-01T00:03:56.232Z,2843.00
2023-04-01T00:04:56.168Z,3154.00
2023-04-01T00:05:56.232Z,3467.00
2023-04-01T00:06:56.230Z,4043.00
2023-04-01T00:07:56.272Z,4574.00
2023-04-01T00:08:56.326Z,4772.00
2023-04-01T00:09:56.397Z,4879.00
2023-04-01T00:10:56.362Z,4973.00
2023-04-01T00:11:56.389Z,5137.00
2023-04-01T00:12:56.409Z,5203.00
2023-04-01T00:13:56.487Z,5239.00
2023-04-01T00:14:56.491Z,5309.00
2023-04-01T00:15:57.417Z,5349.00
2023-04-01T00:16:56.507Z,5399.00
2023-04-01T00:17:56.600Z,5437.00
2023-04-01T00:18:56.560Z,5502.00
2023-04-01T00:19:56.623Z,5566.00
2023-04-01T00:20:56.606Z,5580.00
2023-04-01T00:21:56.643Z,5582.00
2023-04-01T00:22:56.644Z,5495.00
2023-04-01T00:23:56.680Z,4942.00
2023-04-01T00:24:56.676Z,4890.00
2023-04-01T00:25:56.693Z,4223.00
2023-04-01T00:26:56.769Z,3572.00
2023-04-01T00:27:56.768Z,3272.00
2023-04-01T00:28:56.826Z,2883.00
2023-04-01T00:29:56.817Z,2863.00
2023-04-01T00:30:56.811Z,3044.00
2023-04-01T00:31:56.863Z,2981.00
2023-04-01T00:32:56.924Z,2773.00
2023-04-01T00:33:56.919Z,2558.00
2023-04-01T00:34:56.924Z,2390.00
2023-04-01T00:35:56.949Z,2228.00
2023-04-01T00:36:56.979Z,2178.00
2023-04-01T00:37:57.043Z,2389.00
2023-04-01T00:38:57.040Z,2336.00
2023-04-01T00:39:57.119Z,2403.00
2023-04-01T00:40:57.125Z,2656.00
2023-04-01T00:41:57.119Z,2157.00
2023-04-01T00:42:57.176Z,1911.00
2023-04-01T00:43:57.229Z,1869.00
2023-04-01T00:44:57.289Z,1682.00
2023-04-01T00:45:57.292Z,1519.00
2023-04-01T00:46:57.407Z,1453.00
2023-04-01T00:47:57.419Z,1471.00
2023-04-01T00:48:57.427Z,1478.00
2023-04-01T00:49:57.487Z,1522.00
2023-04-01T00:50:57.540Z,1456.00
2023-04-01T00:51:57.597Z,1286.00
2023-04-01T00:52:57.624Z,1300.00
2023-04-01T00:53:57.624Z,1377.00
2023-04-01T00:54:57.648Z,1322.00
2023-04-01T00:55:57.710Z,1351.00
2023-04-01T00:56:57.767Z,1520.00
2023-04-01T00:57:57.785Z,1941.00
2023-04-01T00:58:57.812Z,2131.00
2023-04-01T00:59:57.808Z,1997.00
2023-04-01T01:00:57.915Z,1893.00
2023-04-01T01:01:57.875Z,2065.00
2023-04-01T01:02:57.890Z,2628.00
2023-04-01T01:03:57.919Z,2794.00
2023-04-01T01:04:57.953Z,3038.00
2023-04-01T01:05:57.988Z,3062.00
2023-04-01T01:06:57.956Z,3114.00
2023-04-01T01:07:58.048Z,3362.00
2023-04-01T01:08:58.044Z,3499.00
2023-04-01T01:09:58.080Z,3560.00
2023-04-01T01:10:58.095Z,3652.00
2023-04-01T01:11:58.136Z,3570.00
2023-04-01T01:12:58.128Z,3072.00
2023-04-01T01:13:58.175Z,2634.00
2023-04-01T01:14:58.206Z,2804.00
2023-04-01T01:15:58.275Z,2801.00
2023-04-01T01:16:58.412Z,2755.00
2023-04-01T01:17:58.321Z,2873.00
2023-04-01T01:18:58.318Z,3170.00
2023-04-01T01:19:58.350Z,3169.00
2023-04-01T01:20:58.393Z,3134.00
2023-04-01T01:21:58.406Z,3369.00
2023-04-01T01:22:58.461Z,3548.00
2023-04-01T01:23:58.463Z,3320.00
2023-04-01T01:24:58.468Z,2499.00
2023-04-01T01:25:58.488Z,2219.00
2023-04-01T01:26:58.521Z,2157.00
2023-04-01T01:27:58.578Z,2350.00
2023-04-01T01:28:58.599Z,2426.00
2023-04-01T01:29:58.585Z,2561.00
2023-04-01T01:30:58.612Z,2567.00
2023-04-01T01:31:58.641Z,2388.00
2023-04-01T01:32:58.674Z,2250.00
2023-04-01T01:33:58.670Z,2138.00
2023-04-01T01:34:58.720Z,2286.00
2023-04-01T01:35:58.753Z,2463.00
2023-04-01T01:36:58.736Z,2583.00
2023-04-01T01:37:58.758Z,2748.00
2023-04-01T01:38:58.782Z,2858.00
2023-04-01T01:39:58.778Z,2921.00
2023-04-01T01:40:58.841Z,2994.00
2023-04-01T01:41:58.868Z,2952.00
2023-04-01T01:42:58.893Z,2627.00
2023-04-01T01:43:58.884Z,2898.00
2023-04-01T01:44:58.883Z,2704.00
2023-04-01T01:45:58.953Z,2702.00
2023-04-01T01:46:58.933Z,2731.00
2023-04-01T01:47:59.099Z,2281.00
2023-04-01T01:48:59.012Z,2085.00
2023-04-01T01:49:58.988Z,2012.00
2023-04-01T01:50:59.066Z,1986.00
2023-04-01T01:51:59.064Z,1873.00
2023-04-01T01:52:59.076Z,1919.00
2023-04-01T01:53:59.093Z,1965.00
2023-04-01T01:54:59.126Z,2043.00
2023-04-01T01:55:59.099Z,2091.00
2023-04-01T01:56:59.146Z,2208.00
2023-04-01T01:57:59.129Z,2161.00
2023-04-01T01:58:59.178Z,2257.00
2023-04-01T01:59:59.178Z,2098.00
2023-04-01T02:00:59.215Z,1895.00
2023-04-01T02:01:59.292Z,1835.00
2023-04-01T02:02:59.258Z,1841.00
2023-04-01T02:03:59.257Z,1838.00
2023-04-01T02:04:59.338Z,1694.00
2023-04-01T02:05:59.321Z,1521.00
2023-04-01T02:06:59.323Z,1315.00
2023-04-01T02:07:59.377Z,1136.00
2023-04-01T02:08:59.407Z,1080.00
2023-04-01T02:09:59.418Z,1177.00
2023-04-01T02:10:59.480Z,1127.00
2023-04-01T02:11:59.485Z,1351.00
2023-04-01T02:12:59.499Z,1658.00
2023-04-01T02:13:59.527Z,1997.00
2023-04-01T02:14:59.578Z,2210.00
2023-04-01T02:15:59.642Z,1817.00
2023-04-01T02:16:59.629Z,1584.00
2023-04-01T02:17:59.668Z,1479.00
2023-04-01T02:18:59.641Z,1252.00
2023-04-01T02:19:59.712Z,1264.00
2023-04-01T02:20:59.701Z,1299.00
2023-04-01T02:21:59.720Z,1453.00
2023-04-01T02:22:59.776Z,1521.00
2023-04-01T02:23:59.789Z,1826.00
2023-04-01T02:24:59.836Z,2268.00
2023-04-01T02:25:59.889Z,2258.00
2023-04-01T02:26:59.922Z,2294.00
2023-04-01T02:27:59.965Z,2089.00
2023-04-01T02:28:59.963Z,2016.00
2023-04-01T02:30:00.045Z,1681.00
2023-04-01T02:31:00.103Z,1816.00
2023-04-01T02:32:00.100Z,2004.00
2023-04-01T02:33:00.193Z,2628.00
2023-04-01T02:34:00.150Z,2468.00
2023-04-01T02:35:00.152Z,2382.00
2023-04-01T02:36:00.198Z,2207.00
2023-04-01T02:37:00.176Z,1943.00
2023-04-01T02:38:00.219Z,2121.00
2023-04-01T02:39:00.268Z,1888.00
2023-04-01T02:40:00.303Z,1505.00
2023-04-01T02:41:00.354Z,1266.00
2023-04-01T02:42:00.320Z,1063.00
2023-04-01T02:43:00.393Z,741.00
2023-04-01T02:44:00.405Z,637.00
2023-04-01T02:45:00.440Z,617.00
2023-04-01T02:46:00.473Z,804.00
2023-04-01T02:47:00.570Z,778.00
2023-04-01T02:48:00.574Z,753.00
2023-04-01T02:49:00.582Z,648.00
2023-04-01T02:50:00.610Z,604.00
2023-04-01T02:51:00.656Z,710.00
2023-04-01T02:52:00.673Z,1473.00
2023-04-01T02:53:00.685Z,2296.00
2023-04-01T02:54:00.734Z,2542.00
2023-04-01T02:55:00.759Z,2516.00
2023-04-01T02:56:00.788Z,2861.00
2023-04-01T02:57:00.819Z,3511.00
2023-04-01T02:58:00.853Z,3971.00
2023-04-01T02:59:00.885Z,3889.00
2023-04-01T03:00:00.950Z,4068.00
2023-04-01T03:01:00.975Z,4144.00
2023-04-01T03:02:01.010Z,4274.00
2023-04-01T03:03:01.295Z,4429.00
2023-04-01T03:04:01.045Z,4581.00
2023-04-01T03:05:01.063Z,4647.00
2023-04-01T03:06:01.126Z,4656.00
2023-04-01T03:07:01.132Z,4814.00
2023-04-01T03:08:01.144Z,5014.00
2023-04-01T03:09:01.243Z,5047.00
2023-04-01T03:10:01.218Z,5078.00
2023-04-01T03:11:01.204Z,5092.00
2023-04-01T03:12:01.281Z,5026.00
2023-04-01T03:13:01.315Z,5014.00
2023-04-01T03:14:01.379Z,4974.00
2023-04-01T03:15:11.009Z,4990.00
2023-04-01T03:16:02.371Z,4955.00
2023-04-01T03:17:01.361Z,4867.00
2023-04-01T03:18:01.425Z,4888.00
2023-04-01T03:19:01.339Z,4988.00
2023-04-01T03:20:01.365Z,4923.00
2023-04-01T03:21:01.360Z,5105.00
2023-04-01T03:22:01.331Z,5250.00
2023-04-01T03:23:01.322Z,5325.00
2023-04-01T03:24:01.300Z,5303.00
2023-04-01T03:25:01.288Z,5329.00
2023-04-01T03:26:01.347Z,5377.00
2023-04-01T03:27:01.289Z,5273.00
2023-04-01T03:28:01.291Z,5077.00
2023-04-01T03:29:01.315Z,4840.00
2023-04-01T03:30:01.376Z,4838.00
2023-04-01T03:31:01.357Z,4811.00
2023-04-01T03:32:01.320Z,4903.00
2023-04-01T03:33:01.416Z,4875.00
2023-04-01T03:34:01.384Z,4645.00
2023-04-01T03:35:01.452Z,4487.00
2023-04-01T03:36:01.578Z,4480.00
2023-04-01T03:37:01.545Z,4645.00
2023-04-01T03:38:01.558Z,4826.00
2023-04-01T03:39:01.596Z,4963.00
2023-04-01T03:40:01.633Z,4964.00
2023-04-01T03:41:01.690Z,4959.00
2023-04-01T03:42:01.743Z,5028.00
2023-04-01T03:43:01.779Z,4989.00
2023-04-01T03:44:01.796Z,4951.00
2023-04-01T03:45:01.803Z,5067.00
2023-04-01T03:46:01.902Z,5201.00
2023-04-01T03:47:01.849Z,5196.00
2023-04-01T03:48:01.868Z,5105.00
2023-04-01T03:49:01.855Z,4584.00
2023-04-01T03:50:01.909Z,4775.00
2023-04-01T03:51:01.902Z,5008.00
2023-04-01T03:52:01.942Z,5280.00
2023-04-01T03:53:02.020Z,5402.00
2023-04-01T03:54:01.988Z,5422.00
2023-04-01T03:55:02.074Z,5401.00
2023-04-01T03:56:02.104Z,5405.00
2023-04-01T03:57:02.200Z,5448.00
2023-04-01T03:58:02.173Z,5487.00
2023-04-01T03:59:02.184Z,5523.00
2023-04-01T04:00:02.258Z,5533.00
2023-04-01T04:01:02.280Z,5556.00
2023-04-01T04:02:02.290Z,5615.00
2023-04-01T04:03:02.403Z,5675.00
2023-04-01T04:04:02.332Z,5722.00
2023-04-01T04:05:02.304Z,5772.00
2023-04-01T04:06:02.329Z,5812.00
2023-04-01T04:07:02.352Z,5820.00
2023-04-01T04:08:02.392Z,5827.00
2023-04-01T04:09:02.425Z,5727.00
2023-04-01T04:10:02.433Z,5605.00
2023-04-01T04:11:02.432Z,5495.00
2023-04-01T04:12:02.474Z,5481.00
2023-04-01T04:13:02.499Z,5537.00
2023-04-01T04:14:02.524Z,5590.00
2023-04-01T04:15:02.532Z,5685.00
2023-04-01T04:16:02.643Z,5634.00
2023-04-01T04:17:02.619Z,5602.00
2023-04-01T04:18:02.631Z,5644.00
2023-04-01T04:19:02.644Z,5621.00
2023-04-01T04:20:02.673Z,5494.00
2023-04-01T04:21:02.708Z,5489.00
2023-04-01T04:22:02.686Z,5525.00
2023-04-01T04:23:02.721Z,5607.00
2023-04-01T04:24:02.720Z,5681.00
2023-04-01T04:25:02.740Z,5745.00
2023-04-01T04:26:02.724Z,5691.00
2023-04-01T04:27:02.757Z,5609.00
2023-04-01T04:28:02.779Z,5650.00
2023-04-01T04:29:02.796Z,5691.00
2023-04-01T04:30:02.832Z,5713.00
2023-04-01T04:31:02.897Z,5715.00
2023-04-01T04:32:03.044Z,5697.00
2023-04-01T04:33:02.985Z,5711.00
2023-04-01T04:34:02.994Z,5786.00
2023-04-01T04:35:03.010Z,5950.00
2023-04-01T04:36:03.127Z,5931.00
2023-04-01T04:37:03.068Z,5911.00
2023-04-01T04:38:03.052Z,5925.00
2023-04-01T04:39:03.122Z,5918.00
2023-04-01T04:40:03.076Z,5925.00
2023-04-01T04:41:03.143Z,5909.00
2023-04-01T04:42:03.197Z,5899.00
2023-04-01T04:43:03.217Z,5894.00
2023-04-01T04:44:03.263Z,5900.00
2023-04-01T04:45:03.283Z,5900.00
2023-04-01T04:46:03.375Z,5896.00
2023-04-01T04:47:03.473Z,5904.00
2023-04-01T04:48:03.460Z,5946.00
2023-04-01T04:49:03.463Z,6025.00
2023-04-01T04:50:03.464Z,5993.00
2023-04-01T04:51:03.502Z,5971.00
2023-04-01T04:52:03.547Z,5936.00
2023-04-01T04:53:03.613Z,5946.00
2023-04-01T04:54:03.663Z,5938.00
2023-04-01T04:55:03.659Z,5898.00
2023-04-01T04:56:03.682Z,5903.00
2023-04-01T04:57:03.710Z,5865.00
2023-04-01T04:58:03.770Z,5828.00
2023-04-01T04:59:03.817Z,5798.00
2023-04-01T05:00:03.868Z,5787.00
2023-04-01T05:01:03.925Z,5760.00
2023-04-01T05:02:03.941Z,5793.00
2023-04-01T05:03:04.075Z,5919.00
2023-04-01T05:04:04.014Z,5887.00
2023-04-01T05:05:04.100Z,5856.00
2023-04-01T05:06:04.119Z,5755.00
2023-04-01T05:07:04.144Z,5664.00
2023-04-01T05:08:04.156Z,5590.00
2023-04-01T05:09:04.231Z,5556.00
2023-04-01T05:10:04.198Z,5539.00
2023-04-01T05:11:04.264Z,5500.00
2023-04-01T05:12:04.305Z,5502.00
2023-04-01T05:13:04.374Z,5527.00
2023-04-01T05:14:04.379Z,5480.00
2023-04-01T05:15:04.475Z,5463.00
2023-04-01T05:16:04.498Z,5442.00
2023-04-01T05:17:04.666Z,5450.00
2023-04-01T05:18:04.604Z,5456.00
2023-04-01T05:19:04.606Z,5484.00
2023-04-01T05:20:04.659Z,5410.00
2023-04-01T05:21:04.724Z,5366.00
2023-04-01T05:22:04.737Z,5302.00
2023-04-01T05:23:04.773Z,5216.00
2023-04-01T05:24:04.761Z,5190.00
2023-04-01T05:25:04.804Z,5185.00
2023-04-01T05:26:04.790Z,5145.00
2023-04-01T05:27:04.855Z,5097.00
2023-04-01T05:28:04.881Z,5089.00
2023-04-01T05:29:04.922Z,5124.00
2023-04-01T05:30:04.969Z,5170.00
2023-04-01T05:31:05.052Z,5187.00
2023-04-01T05:32:05.041Z,5236.00
2023-04-01T05:33:05.132Z,5225.00
2023-04-01T05:34:05.149Z,5211.00
2023-04-01T05:35:05.202Z,5140.00
2023-04-01T05:36:05.287Z,5160.00
2023-04-01T05:37:05.277Z,5115.00
2023-04-01T05:38:05.334Z,5106.00
2023-04-01T05:39:05.395Z,5050.00
2023-04-01T05:40:05.412Z,4957.00
2023-04-01T05:41:05.456Z,4554.00
2023-04-01T05:42:05.476Z,4331.00
2023-04-01T05:43:05.585Z,3919.00
2023-04-01T05:44:05.600Z,3841.00
2023-04-01T05:45:05.703Z,3836.00
2023-04-01T05:46:05.726Z,3991.00
2023-04-01T05:47:05.717Z,4100.00
2023-04-01T05:48:05.814Z,4138.00
2023-04-01T05:49:05.815Z,4187.00
2023-04-01T05:50:05.834Z,4206.00
2023-04-01T05:51:05.881Z,4284.00
2023-04-01T05:52:05.891Z,4216.00
2023-04-01T05:53:05.929Z,4294.00
2023-04-01T05:54:05.987Z,4332.00
2023-04-01T05:55:06.035Z,4355.00
2023-04-01T05:56:06.088Z,4403.00
2023-04-01T05:57:06.139Z,4500.00
2023-04-01T05:58:06.202Z,4534.00
2023-04-01T05:59:06.225Z,4385.00
2023-04-01T06:00:06.259Z,4635.00
2023-04-01T06:01:11.237Z,4904.00
2023-04-01T06:02:07.274Z,4907.00
2023-04-01T06:03:06.354Z,4923.00
2023-04-01T06:04:06.325Z,4936.00
2023-04-01T06:05:06.221Z,4956.00
2023-04-01T06:06:06.255Z,5015.00
2023-04-01T06:07:06.252Z,5072.00
2023-04-01T06:08:06.193Z,5131.00
2023-04-01T06:09:06.188Z,5189.00
2023-04-01T06:10:06.243Z,5261.00
2023-04-01T06:11:06.218Z,5277.00
2023-04-01T06:12:06.253Z,5302.00
2023-04-01T06:13:06.200Z,5286.00
2023-04-01T06:14:06.204Z,5167.00
2023-04-01T06:15:06.184Z,5142.00
2023-04-01T06:16:06.196Z,5042.00
2023-04-01T06:17:06.180Z,5015.00
2023-04-01T06:18:06.229Z,5023.00
2023-04-01T06:19:06.145Z,5049.00
2023-04-01T06:20:06.159Z,5031.00
2023-04-01T06:21:06.151Z,5022.00
2023-04-01T06:22:06.154Z,5050.00
2023-04-01T06:23:06.215Z,5073.00
2023-04-01T06:24:06.241Z,5112.00
2023-04-01T06:25:06.181Z,5133.00
2023-04-01T06:26:06.186Z,5166.00
2023-04-01T06:27:06.192Z,5232.00
2023-04-01T06:28:08.433Z,5254.00
2023-04-01T06:29:06.212Z,5271.00
2023-04-01T06:30:06.220Z,5315.00
2023-04-01T06:31:06.195Z,5344.00
2023-04-01T06:32:06.256Z,5467.00
2023-04-01T06:33:06.218Z,5422.00
2023-04-01T06:34:06.181Z,5432.00
2023-04-01T06:35:06.190Z,5351.00
2023-04-01T06:36:06.224Z,5283.00
2023-04-01T06:37:06.231Z,5302.00
2023-04-01T06:38:06.180Z,5269.00
2023-04-01T06:39:06.258Z,5248.00
2023-04-01T06:40:06.164Z,5241.00
2023-04-01T06:41:06.167Z,5248.00
2023-04-01T06:42:06.181Z,5300.00
2023-04-01T06:43:06.143Z,5344.00
2023-04-01T06:44:06.111Z,5365.00
2023-04-01T06:45:06.140Z,5306.00
2023-04-01T06:46:06.203Z,5267.00
2023-04-01T06:47:06.164Z,5387.00
2023-04-01T06:48:06.116Z,5529.00
2023-04-01T06:49:06.155Z,5636.00
2023-04-01T06:50:06.108Z,5638.00
2023-04-01T06:51:06.104Z,5538.00
2023-04-01T06:52:06.085Z,5535.00
2023-04-01T06:53:06.204Z,5547.00
2023-04-01T06:54:06.062Z,5517.00
2023-04-01T06:55:06.115Z,5500.00
2023-04-01T06:56:06.053Z,5445.00
2023-04-01T06:57:06.092Z,5428.00
2023-04-01T06:58:06.109Z,5395.00
2023-04-01T06:59:06.023Z,5092.00
2023-04-01T07:00:06.044Z,5014.00
2023-04-01T07:01:06.119Z,5097.00
2023-04-01T07:02:06.014Z,5280.00
2023-04-01T07:03:06.997Z,5370.00
2023-04-01T07:04:06.027Z,5438.00
2023-04-01T07:05:06.005Z,5346.00
2023-04-01T07:06:05.987Z,5311.00
2023-04-01T07:07:06.020Z,5408.00
2023-04-01T07:08:06.000Z,5387.00
2023-04-01T07:09:06.201Z,5394.00
2023-04-01T07:10:05.989Z,5348.00
2023-04-01T07:11:05.986Z,5191.00
2023-04-01T07:12:06.104Z,5275.00
2023-04-01T07:13:05.948Z,5315.00
2023-04-01T07:14:05.945Z,5382.00
2023-04-01T07:15:05.948Z,5444.00
2023-04-01T07:16:05.932Z,5417.00
2023-04-01T07:17:06.069Z,5452.00
2023-04-01T07:18:05.906Z,5495.00
2023-04-01T07:19:05.949Z,5551.00
2023-04-01T07:20:05.917Z,5500.00
2023-04-01T07:21:05.885Z,5297.00
2023-04-01T07:22:05.888Z,5171.00
2023-04-01T07:23:05.858Z,5133.00
2023-04-01T07:24:05.876Z,4999.00
2023-04-01T07:25:05.890Z,4833.00
2023-04-01T07:26:05.844Z,4763.00
2023-04-01T07:27:05.837Z,4548.00
2023-04-01T07:28:05.897Z,4374.00
2023-04-01T07:29:05.843Z,4241.00
2023-04-01T07:30:05.806Z,4097.00
2023-04-01T07:31:05.892Z,4121.00
2023-04-01T07:32:05.819Z,4250.00
2023-04-01T07:33:05.857Z,4252.00
2023-04-01T07:34:05.843Z,4257.00
2023-04-01T07:35:05.814Z,4357.00
2023-04-01T07:36:05.815Z,4369.00
2023-04-01T07:37:05.781Z,4399.00
2023-04-01T07:38:05.791Z,4306.00
2023-04-01T07:39:05.785Z,4463.00
2023-04-01T07:40:05.765Z,4522.00
2023-04-01T07:41:05.772Z,4499.00
2023-04-01T07:42:05.791Z,4219.00
2023-04-01T07:43:05.791Z,3771.00
2023-04-01T07:44:05.818Z,3748.00
2023-04-01T07:45:05.914Z,4184.00
2023-04-01T07:46:05.997Z,4624.00
2023-04-01T07:47:05.950Z,5016.00
2023-04-01T07:48:06.044Z,5230.00
2023-04-01T07:49:06.033Z,5363.00
2023-04-01T07:50:06.074Z,5236.00
2023-04-01T07:51:06.159Z,5232.00
2023-04-01T07:52:06.118Z,5373.00
2023-04-01T07:53:06.180Z,5493.00
2023-04-01T07:54:06.172Z,5521.00
2023-04-01T07:55:06.168Z,5462.00
2023-04-01T07:56:06.217Z,5514.00
2023-04-01T07:57:06.327Z,5495.00
2023-04-01T07:58:06.255Z,5404.00
2023-04-01T07:59:06.320Z,5365.00
2023-04-01T08:00:06.284Z,5229.00
2023-04-01T08:01:06.319Z,5097.00
2023-04-01T08:02:06.327Z,5072.00
2023-04-01T08:03:06.440Z,5106.00
2023-04-01T08:04:06.561Z,5088.00
2023-04-01T08:05:06.445Z,5157.00
2023-04-01T08:06:06.453Z,5188.00
2023-04-01T08:07:06.489Z,5207.00
2023-04-01T08:08:06.479Z,5119.00
2023-04-01T08:09:06.498Z,4945.00
2023-04-01T08:10:06.505Z,4763.00
2023-04-01T08:11:06.508Z,4350.00
2023-04-01T08:12:06.529Z,4380.00
2023-04-01T08:13:06.586Z,4265.00
2023-04-01T08:14:06.638Z,4265.00
2023-04-01T08:15:06.641Z,4254.00
2023-04-01T08:16:06.716Z,4231.00
2023-04-01T08:17:06.710Z,4144.00
2023-04-01T08:18:06.761Z,4144.00
2023-04-01T08:19:06.743Z,4103.00
2023-04-01T08:20:06.794Z,4069.00
2023-04-01T08:21:06.841Z,4121.00
2023-04-01T08:22:06.839Z,4154.00
2023-04-01T08:23:06.908Z,4138.00
2023-04-01T08:24:06.946Z,4039.00
2023-04-01T08:25:06.988Z,3875.00
2023-04-01T08:26:06.985Z,3632.00
2023-04-01T08:27:06.969Z,3578.00
2023-04-01T08:28:07.020Z,3571.00
2023-04-01T08:29:06.997Z,3560.00
2023-04-01T08:30:08.828Z,3477.00
2023-04-01T08:31:07.041Z,3502.00
2023-04-01T08:32:07.052Z,3240.00
2023-04-01T08:33:07.069Z,3008.00
2023-04-01T08:34:07.073Z,3082.00
2023-04-01T08:35:06.976Z,3092.00
2023-04-01T08:36:07.066Z,2889.00
2023-04-01T08:37:07.029Z,2681.00
2023-04-01T08:38:06.976Z,2393.00
2023-04-01T08:39:06.991Z,2306.00
2023-04-01T08:40:07.000Z,1870.00
2023-04-01T08:41:06.999Z,1879.00
2023-04-01T08:42:06.958Z,2118.00
2023-04-01T08:43:06.977Z,2079.00
2023-04-01T08:44:06.947Z,2010.00
2023-04-01T08:45:06.974Z,1611.00
2023-04-01T08:46:06.975Z,1199.00
2023-04-01T08:47:06.974Z,985.00
2023-04-01T08:48:06.942Z,795.00
2023-04-01T08:49:06.950Z,486.00
2023-04-01T08:50:06.912Z,463.00
2023-04-01T08:51:06.932Z,400.00
2023-04-01T08:52:06.881Z,400.00
2023-04-01T08:53:06.908Z,400.00
2023-04-01T08:54:06.899Z,522.00
2023-04-01T08:55:06.874Z,525.00
2023-04-01T08:56:06.905Z,512.00
2023-04-01T08:57:06.925Z,586.00
2023-04-01T08:58:06.871Z,755.00
2023-04-01T08:59:06.879Z,958.00
2023-04-01T09:00:06.842Z,1317.00
2023-04-01T09:01:06.876Z,1726.00
2023-04-01T09:02:06.876Z,865.00
2023-04-01T09:03:07.083Z,1107.00
2023-04-01T09:04:06.874Z,886.00
2023-04-01T09:05:06.803Z,661.00
2023-04-01T09:06:06.810Z,507.00
2023-04-01T09:07:06.786Z,400.00
2023-04-01T09:08:06.799Z,450.00
2023-04-01T09:09:06.833Z,459.00
2023-04-01T09:10:06.763Z,400.00
2023-04-01T09:11:06.782Z,400.00
2023-04-01T09:12:06.848Z,400.00
2023-04-01T09:13:06.770Z,529.00
2023-04-01T09:14:06.765Z,454.00
2023-04-01T09:15:06.759Z,486.00
2023-04-01T09:16:06.798Z,400.00
2023-04-01T09:17:06.736Z,400.00
2023-04-01T09:18:06.773Z,400.00
2023-04-01T09:19:06.696Z,400.00
2023-04-01T09:20:06.716Z,400.00
2023-04-01T09:21:06.716Z,400.00
2023-04-01T09:22:06.708Z,400.00
2023-04-01T09:23:06.751Z,400.00
2023-04-01T09:24:06.671Z,446.00
2023-04-01T09:25:06.702Z,400.00
2023-04-01T09:26:06.668Z,400.00
2023-04-01T09:27:06.683Z,400.00
2023-04-01T09:28:06.635Z,400.00
2023-04-01T09:29:06.646Z,400.00
2023-04-01T09:30:06.665Z,400.00
2023-04-01T09:31:06.704Z,400.00
2023-04-01T09:32:06.608Z,400.00
2023-04-01T09:33:06.648Z,400.00
2023-04-01T09:34:06.656Z,400.00
2023-04-01T09:35:06.696Z,400.00
2023-04-01T09:36:06.799Z,400.00
2023-04-01T09:37:06.778Z,400.00
2023-04-01T09:38:06.827Z,400.00
2023-04-01T09:39:06.845Z,400.00
2023-04-01T09:40:06.885Z,400.00
2023-04-01T09:41:06.908Z,400.00
2023-04-01T09:42:06.952Z,400.00
2023-04-01T09:43:06.990Z,400.00
2023-04-01T09:44:07.051Z,400.00
2023-04-01T09:45:07.048Z,400.00
2023-04-01T09:46:07.070Z,400.00
2023-04-01T09:47:07.120Z,400.00
2023-04-01T09:48:07.197Z,400.00
2023-04-01T09:49:07.163Z,400.00
2023-04-01T09:50:07.204Z,400.00
2023-04-01T09:51:07.215Z,400.00
2023-04-01T09:52:07.251Z,400.00
2023-04-01T09:53:07.263Z,400.00
2023-04-01T09:54:07.332Z,400.00
2023-04-01T09:55:07.329Z,400.00
2023-04-01T09:56:07.370Z,400.00
2023-04-01T09:57:07.459Z,400.00
2023-04-01T09:58:07.451Z,400.00
2023-04-01T09:59:07.456Z,400.00
2023-04-01T10:00:07.490Z,400.00
2023-04-01T10:01:07.532Z,400.00
2023-04-01T10:02:07.589Z,400.00
2023-04-01T10:03:07.615Z,400.00
2023-04-01T10:04:07.593Z,411.00
2023-04-01T10:05:07.687Z,559.00
2023-04-01T10:06:07.880Z,601.00
2023-04-01T10:07:07.701Z,400.00
2023-04-01T10:08:07.765Z,466.00
2023-04-01T10:09:07.826Z,480.00
2023-04-01T10:10:07.828Z,571.00
2023-04-01T10:11:07.824Z,522.00
2023-04-01T10:12:07.887Z,400.00
2023-04-01T10:13:07.887Z,400.00
2023-04-01T10:14:07.893Z,400.00
2023-04-01T10:15:07.902Z,400.00
2023-04-01T10:16:08.021Z,400.00
2023-04-01T10:18:27.198Z,500.00
2023-04-01T10:19:27.170Z,500.00
2023-04-01T10:20:27.199Z,500.00
2023-04-01T10:21:27.248Z,500.00
2023-04-01T10:22:27.201Z,500.00
2023-04-01T10:23:27.192Z,524.00
2023-04-01T10:24:27.168Z,438.00
2023-04-01T10:25:27.186Z,500.00
2023-04-01T10:26:27.166Z,538.00
2023-04-01T10:27:27.180Z,510.00
2023-04-01T10:28:27.169Z,488.00
2023-04-01T10:29:27.185Z,513.00
2023-04-01T10:30:27.108Z,461.00
2023-04-01T10:31:27.166Z,514.00
2023-04-01T10:32:27.196Z,501.00
2023-04-01T10:33:27.110Z,522.00
2023-04-01T10:34:27.122Z,484.00
2023-04-01T10:35:27.069Z,400.00
2023-04-01T10:36:27.147Z,408.00
2023-04-01T10:37:27.093Z,725.00
2023-04-01T10:38:28.310Z,660.00
2023-04-01T10:39:27.041Z,884.00
2023-04-01T10:40:27.130Z,924.00
2023-04-01T10:41:27.054Z,925.00
2023-04-01T10:42:27.036Z,974.00
2023-04-01T10:43:27.074Z,1627.00
2023-04-01T10:44:27.051Z,1677.00
2023-04-01T10:45:27.003Z,1318.00
2023-04-01T10:46:27.085Z,1007.00
2023-04-01T10:47:27.113Z,1469.00
2023-04-01T10:48:27.043Z,848.00
2023-04-01T10:49:26.973Z,694.00
2023-04-01T10:50:27.003Z,842.00
2023-04-01T10:51:26.960Z,526.00
2023-04-01T10:52:26.989Z,400.00
2023-04-01T10:53:26.968Z,400.00
2023-04-01T10:54:26.954Z,429.00
2023-04-01T10:55:26.967Z,482.00
2023-04-01T10:56:26.950Z,643.00
2023-04-01T10:57:26.985Z,642.00
2023-04-01T10:58:27.003Z,602.00
2023-04-01T10:59:27.081Z,608.00
2023-04-01T11:00:26.972Z,506.00
2023-04-01T11:01:26.986Z,549.00
2023-04-01T11:02:27.046Z,718.00
2023-04-01T11:03:27.059Z,1061.00
2023-04-01T11:04:26.892Z,734.00
2023-04-01T11:05:26.902Z,1168.00
2023-04-01T11:06:26.901Z,862.00
2023-04-01T11:07:26.900Z,712.00
2023-04-01T11:08:26.908Z,526.00
2023-04-01T11:09:26.895Z,532.00
2023-04-01T11:10:26.847Z,475.00
2023-04-01T11:11:26.857Z,559.00
2023-04-01T11:12:26.946Z,766.00
2023-04-01T11:13:26.918Z,1168.00
2023-04-01T11:14:26.956Z,878.00
2023-04-01T11:15:27.017Z,581.00
2023-04-01T11:16:27.072Z,754.00
2023-04-01T11:17:27.159Z,923.00
2023-04-01T11:18:27.090Z,718.00
2023-04-01T11:19:27.104Z,601.00
2023-04-01T11:20:27.145Z,713.00
2023-04-01T11:21:27.159Z,556.00
2023-04-01T11:22:27.206Z,646.00
2023-04-01T11:23:27.241Z,640.00
2023-04-01T11:24:27.348Z,854.00
2023-04-01T11:25:27.356Z,796.00
2023-04-01T11:26:27.338Z,903.00
2023-04-01T11:27:27.344Z,626.00
2023-04-01T11:28:27.368Z,914.00
2023-04-01T11:29:27.424Z,809.00
2023-04-01T11:30:27.460Z,647.00
2023-04-01T11:31:27.524Z,614.00
2023-04-01T11:32:27.524Z,670.00
2023-04-01T11:33:27.544Z,822.00
2023-04-01T11:34:27.553Z,960.00
2023-04-01T11:35:27.627Z,1589.00
2023-04-01T11:36:27.678Z,1892.00
2023-04-01T11:37:27.644Z,1113.00
2023-04-01T11:38:27.691Z,595.00
2023-04-01T11:39:27.714Z,400.00
2023-04-01T11:40:27.756Z,400.00
2023-04-01T11:41:27.800Z,413.00
2023-04-01T11:42:27.842Z,662.00
2023-04-01T11:43:33.514Z,981.00
2023-04-01T11:44:28.901Z,987.00
2023-04-01T11:45:27.838Z,1028.00
2023-04-01T11:46:27.898Z,1154.00
2023-04-01T11:47:27.857Z,1304.00
2023-04-01T11:48:27.807Z,1786.00
2023-04-01T11:49:27.824Z,1591.00
2023-04-01T11:50:27.816Z,1494.00
2023-04-01T11:51:27.823Z,1379.00
2023-04-01T11:52:27.763Z,1162.00
2023-04-01T11:53:27.791Z,1061.00
2023-04-01T11:54:27.772Z,870.00
2023-04-01T11:55:27.767Z,949.00
2023-04-01T11:56:27.759Z,995.00
2023-04-01T11:57:27.779Z,750.00
2023-04-01T11:58:27.785Z,1164.00
2023-04-01T11:59:27.808Z,1292.00
2023-04-01T12:00:27.827Z,866.00
2023-04-01T12:01:27.907Z,1017.00
2023-04-01T12:02:27.953Z,1370.00
2023-04-01T12:03:28.156Z,1514.00
2023-04-01T12:04:28.030Z,1613.00
2023-04-01T12:05:27.981Z,1949.00
2023-04-01T12:06:28.070Z,1454.00
2023-04-01T12:07:28.095Z,1087.00
2023-04-01T12:08:28.128Z,690.00
2023-04-01T12:09:28.171Z,620.00
2023-04-01T12:10:28.236Z,504.00
2023-04-01T12:11:28.231Z,536.00
2023-04-01T12:12:28.273Z,760.00
2023-04-01T12:13:28.522Z,1505.00